Preise (Charter):

Flugzeuge Normalpreis ab 12 h/Jahr -5% ab 20 h/Jahr -8%

Cessna 172 SP

D-ETTU

234,00 € 222,30 € 215,28 €

Mooney Ovation 2 GX 

D-ETTB

 379,00 €  360,05 € 349,68 € 

Reservierungen können Sie über unser Buchungssystem vornehmen.

Neben unseren Flugzeugen können wir über unser Netzwerk weitere Flugzeuge vermitteln.

Für weitere Informationen füllen Sie bitte das Kontaktformular aus oder wenden sich direkt an:

Christian Sabionski

Tel.:   +49 (0)172 8140311

Flugwetter Augsburg

[source: ADDS]
METAR
EDMA 260350Z AUTO VRB02KT 9999 // FEW060/// 04/04 Q1032 =
TAF EDMA 251700Z 2518/2603 32008KT 9999 SCT045 BECMG 2519/2521 VRB03KT
TAF
TAF EDMA 251700Z 2518/2603 32008KT 9999 SCT045 BECMG 2519/2521 VRB03KT =
Cookies erleichtern die Bereitstellung unserer Dienste. Mit der Nutzung unserer Dienste erklären Sie sich damit einverstanden, dass wir Cookies verwenden.
Weitere Informationen Ok